Forside
METAR-TAF:

METAR-TAF

Lufthavne :

Maple Lake Municipal Airport

Maple Lake, Minnesota, USA

Breddekreds: 45-14-10N, længdekreds: 093-59-08W, højde: 313 m

Aktuelle vejr

Denne rapport blev lavet for 27 minutter siden, kl. 17:35 UTC
Vind 8 kt fra vest med vindstød på up til 14 kt
Temperatur 6°C
Fugtighed 61%
Tryk 1012 hPa
Sigt: 16.1 km

METAR: KMGG 231735Z AUTO 27008G14KT 10SM 06/M01 A2988 RMK AO2 T00551011

Tid: 12:02 (18:02 UTC)


TAF: fraværende

Vejrobservationer og prognoser fra mere end 4000 lufthavne (METAR og TAF).

De gule og røde prikker repræsenterer de meteorologiske stationer.

Flyt musen over at se navnet på stationen.

Så klik over at se vejr observationer og prognoser.

At skifte det kort: Klik på de grønne knapper med et sort kors for at zoome ind; på den grønne knap med en bindestreg for at zoome ud; eller på de grønne pile for tilstødende kort.


METAR-TAF: